Time;durP1;ratioP1;P1;durP2;ratioP2;P2;SDS_P1;SDS_P2;PMS_P1;PMS_P2;Temp;Humidity;BMP_temperature;BMP_pressure;BME280_temperature;BME280_humidity;BME280_pressure;Samples;Min_cycle;Max_cycle;Signal;HPM_P1;HPM_P2
2022/10/26 00:03:10;;;;;;;3.17;2.90;;;14.20;43.40;;;;;;10364579;28;20245;-73
2022/10/26 00:08:13;;;;;;;6.67;3.20;;;14.20;43.40;;;;;;10366109;28;20296;-74
2022/10/26 00:13:18;;;;;;;3.50;3.20;;;14.20;43.60;;;;;;10364644;28;20292;-74
2022/10/26 00:18:21;;;;;;;3.17;2.87;;;14.20;43.60;;;;;;10364565;28;20238;-73
2022/10/26 00:23:25;;;;;;;3.87;3.30;;;14.20;43.60;;;;;;10364972;28;20238;-74
2022/10/26 00:28:29;;;;;;;3.70;3.40;;;14.20;43.60;;;;;;10363735;28;20296;-74
2022/10/26 00:33:33;;;;;;;3.43;3.13;;;14.20;43.60;;;;;;10364997;28;20234;-74
2022/10/26 00:38:36;;;;;;;4.43;3.37;;;14.10;44.30;;;;;;10363269;28;20249;-74
2022/10/26 00:43:42;;;;;;;4.00;3.27;;;14.00;43.40;;;;;;10363776;28;20238;-74
2022/10/26 00:48:49;;;;;;;3.07;2.70;;;14.00;43.90;;;;;;10363641;28;20639;-74
2022/10/26 00:53:53;;;;;;;3.50;2.73;;;14.00;43.90;;;;;;10363128;28;20230;-74
2022/10/26 00:59:02;;;;;;;2.87;2.67;;;14.00;43.90;;;;;;10363037;28;20238;-74
2022/10/26 01:04:05;;;;;;;3.67;3.07;;;14.10;44.50;;;;;;10363112;28;20226;-74
2022/10/26 01:09:10;;;;;;;3.10;2.80;;;14.10;43.80;;;;;;10362145;28;20322;-73
2022/10/26 01:14:18;;;;;;;4.37;3.23;;;14.20;44.20;;;;;;10362557;28;20234;-73
2022/10/26 01:19:56;;;;;;;3.53;3.03;;;14.20;44.80;;;;;;10362750;28;20288;-74
2022/10/26 01:25:08;;;;;;;3.73;2.90;;;14.20;45.00;;;;;;10353443;28;20245;-74
2022/10/26 01:30:27;;;;;;;6.33;3.20;;;14.20;44.80;;;;;;10361430;28;20249;-73
2022/10/26 01:35:35;;;;;;;4.47;2.70;;;14.10;44.90;;;;;;10362119;28;20276;-74
2022/10/26 01:40:45;;;;;;;2.53;2.33;;;14.10;45.10;;;;;;10360693;28;20288;-73
2022/10/26 01:45:51;;;;;;;3.13;2.50;;;14.10;45.30;;;;;;10361626;28;20234;-73
2022/10/26 01:50:56;;;;;;;4.50;2.53;;;14.10;45.70;;;;;;10361349;28;20292;-73
2022/10/26 01:56:01;;;;;;;4.50;2.50;;;14.20;45.40;;;;;;10360283;28;20234;-73
2022/10/26 02:01:16;;;;;;;4.33;2.57;;;14.20;45.50;;;;;;10360483;28;20257;-73
2022/10/26 02:06:26;;;;;;;2.60;2.40;;;14.30;46.50;;;;;;10360983;28;20786;-73
2022/10/26 02:11:38;;;;;;;4.90;2.43;;;14.30;46.20;;;;;;10360534;28;20229;-75
2022/10/26 02:16:53;;;;;;;6.00;2.27;;;14.40;46.60;;;;;;10359376;28;20238;-73
2022/10/26 02:22:02;;;;;;;4.37;2.50;;;14.40;46.60;;;;;;10359342;28;20238;-74
2022/10/26 02:27:08;;;;;;;2.57;2.37;;;14.40;46.40;;;;;;10358747;28;20724;-74
2022/10/26 02:32:13;;;;;;;4.53;2.73;;;14.40;45.90;;;;;;10359896;28;20266;-74
2022/10/26 02:37:20;;;;;;;3.40;2.70;;;14.50;45.90;;;;;;10355419;28;20238;-73
2022/10/26 02:42:24;;;;;;;3.37;2.90;;;14.50;46.00;;;;;;10349881;28;20242;-73
2022/10/26 02:47:29;;;;;;;3.50;3.13;;;14.50;45.70;;;;;;10359296;28;20230;-73
2022/10/26 02:52:46;;;;;;;4.07;3.67;;;14.50;46.00;;;;;;10358882;28;20237;-73
2022/10/26 02:57:54;;;;;;;4.53;3.07;;;14.50;46.40;;;;;;10358652;28;20842;-74
2022/10/26 03:03:01;;;;;;;3.77;2.90;;;14.50;45.90;;;;;;10357804;28;20246;-74
2022/10/26 03:08:05;;;;;;;2.90;2.70;;;14.60;46.10;;;;;;10358064;28;20234;-73
2022/10/26 03:13:08;;;;;;;3.87;2.90;;;14.60;45.60;;;;;;10358070;28;20234;-73
2022/10/26 03:18:13;;;;;;;4.40;2.80;;;14.60;45.50;;;;;;10356949;28;20755;-73
2022/10/26 03:23:16;;;;;;;2.80;2.40;;;14.60;45.90;;;;;;10358221;28;20238;-74
2022/10/26 03:28:19;;;;;;;2.80;2.60;;;14.60;45.60;;;;;;10355974;28;20246;-74
2022/10/26 03:33:23;;;;;;;6.20;2.77;;;14.70;45.60;;;;;;10357474;28;20242;-72
2022/10/26 03:38:29;;;;;;;2.60;2.40;;;14.70;45.80;;;;;;10357277;28;20238;-74
2022/10/26 03:43:33;;;;;;;3.07;2.47;;;14.60;45.50;;;;;;10356557;28;20735;-74
2022/10/26 03:48:37;;;;;;;2.70;2.50;;;14.60;45.50;;;;;;10363233;28;20238;-74
2022/10/26 03:53:40;;;;;;;2.80;2.50;;;14.60;46.00;;;;;;10372750;28;20236;-74
2022/10/26 03:58:43;;;;;;;2.90;2.60;;;14.60;45.60;;;;;;10377849;28;20798;-74
2022/10/26 04:03:48;;;;;;;5.03;2.60;;;14.60;45.70;;;;;;10371635;28;20234;-74
2022/10/26 04:08:56;;;;;;;2.93;2.20;;;14.60;46.00;;;;;;10366210;28;20230;-74
2022/10/26 04:14:00;;;;;;;2.77;2.33;;;14.60;45.80;;;;;;10373401;28;20237;-74
2022/10/26 04:19:04;;;;;;;3.17;2.87;;;14.60;45.90;;;;;;10372465;28;20767;-74
2022/10/26 04:24:08;;;;;;;3.40;3.13;;;14.60;46.30;;;;;;10373263;28;20226;-74
2022/10/26 04:29:12;;;;;;;3.50;3.10;;;14.60;46.00;;;;;;10374324;28;20249;-74
2022/10/26 04:34:17;;;;;;;5.17;3.27;;;14.60;46.00;;;;;;10379133;28;20222;-74
2022/10/26 04:39:20;;;;;;;3.47;3.17;;;14.70;46.40;;;;;;10370480;28;20656;-75
2022/10/26 04:44:23;;;;;;;3.50;3.20;;;14.70;46.20;;;;;;10380618;28;20241;-75
2022/10/26 04:49:27;;;;;;;4.77;3.20;;;14.70;46.20;;;;;;10383948;28;20237;-75
2022/10/26 04:54:31;;;;;;;6.00;3.10;;;14.70;46.50;;;;;;10382100;28;20632;-75
2022/10/26 04:59:34;;;;;;;5.80;3.63;;;14.70;46.20;;;;;;10381659;28;20234;-75
2022/10/26 05:04:38;;;;;;;5.13;3.47;;;14.70;46.30;;;;;;10381119;28;20644;-75
2022/10/26 05:09:42;;;;;;;4.63;3.57;;;14.70;46.70;;;;;;10376932;28;20630;-75
2022/10/26 05:14:45;;;;;;;4.67;4.10;;;14.70;46.50;;;;;;10371680;28;20234;-75
2022/10/26 05:19:54;;;;;;;5.40;4.20;;;14.70;46.70;;;;;;10375944;28;20234;-75
2022/10/26 05:24:57;;;;;;;5.27;4.77;;;14.70;47.20;;;;;;10374498;28;20231;-77
2022/10/26 05:30:00;;;;;;;4.10;3.30;;;14.60;46.90;;;;;;10375402;28;20660;-78
2022/10/26 05:35:05;;;;;;;3.80;3.47;;;14.70;47.40;;;;;;10407306;28;20234;-81
2022/10/26 05:40:10;;;;;;;3.70;2.67;;;14.70;48.10;;;;;;10391784;28;20755;-77
2022/10/26 05:45:14;;;;;;;5.13;2.63;;;14.80;48.00;;;;;;10382040;28;20260;-76
2022/10/26 05:50:18;;;;;;;4.27;3.00;;;14.70;47.90;;;;;;10382828;28;20233;-78
2022/10/26 05:55:22;;;;;;;3.27;2.70;;;14.70;48.40;;;;;;10381972;28;20290;-76
2022/10/26 06:00:27;;;;;;;3.23;2.93;;;14.80;48.20;;;;;;10388462;28;20237;-77
2022/10/26 06:05:37;;;;;;;3.30;2.87;;;14.90;48.50;;;;;;10375225;28;20236;-76
2022/10/26 06:10:41;;;;;;;3.77;2.60;;;14.90;49.00;;;;;;10376475;28;20230;-76
2022/10/26 06:15:53;;;;;;;4.80;2.87;;;15.00;48.20;;;;;;10384833;28;20732;-80
2022/10/26 06:21:10;;;;;;;3.60;3.30;;;15.00;49.00;;;;;;10391658;28;20249;-80
2022/10/26 06:26:25;;;;;;;3.13;2.83;;;15.10;49.20;;;;;;10375202;28;20273;-80
2022/10/26 06:31:29;;;;;;;3.90;2.80;;;15.10;48.90;;;;;;10396608;28;20229;-76
2022/10/26 06:36:35;;;;;;;3.27;3.00;;;15.10;48.10;;;;;;10381851;28;20245;-76
2022/10/26 06:41:38;;;;;;;3.30;3.00;;;15.10;48.90;;;;;;10378616;28;20233;-76
2022/10/26 06:46:46;;;;;;;4.63;2.80;;;15.10;48.50;;;;;;10379096;28;20245;-78
2022/10/26 06:51:57;;;;;;;3.20;3.00;;;15.10;49.00;;;;;;10380539;28;20234;-78
2022/10/26 06:57:01;;;;;;;3.43;2.70;;;15.10;49.40;;;;;;10392164;28;20233;-79
2022/10/26 07:02:05;;;;;;;3.03;2.83;;;15.20;49.00;;;;;;10385224;28;20245;-78
2022/10/26 07:07:13;;;;;;;3.27;2.50;;;15.20;49.00;;;;;;10391339;28;20296;-79
2022/10/26 07:12:16;;;;;;;2.57;2.37;;;15.20;50.20;;;;;;10384480;28;20510;-78
2022/10/26 07:17:19;;;;;;;4.77;2.47;;;15.20;49.50;;;;;;10381966;28;20241;-78
2022/10/26 07:22:25;;;;;;;4.20;2.33;;;15.30;50.20;;;;;;10382907;28;20240;-78
2022/10/26 07:27:28;;;;;;;2.20;2.00;;;15.50;50.70;;;;;;10381999;28;20233;-78
2022/10/26 07:32:31;;;;;;;4.50;2.30;;;15.60;50.00;;;;;;10384557;28;20233;-78
2022/10/26 07:37:36;;;;;;;2.60;2.30;;;15.70;50.60;;;;;;10380800;28;20245;-78
2022/10/26 07:42:39;;;;;;;2.30;2.10;;;15.80;50.50;;;;;;10380608;28;20245;-78
2022/10/26 07:47:47;;;;;;;3.03;2.47;;;15.90;49.90;;;;;;10383650;28;20240;-78
2022/10/26 07:52:52;;;;;;;4.33;3.53;;;16.00;50.00;;;;;;10388341;28;20226;-78
2022/10/26 07:57:56;;;;;;;3.00;2.77;;;16.10;50.20;;;;;;10390618;28;20267;-78
2022/10/26 08:03:01;;;;;;;2.53;2.33;;;16.20;50.00;;;;;;10378842;28;20333;-78
2022/10/26 08:08:06;;;;;;;2.93;2.00;;;16.30;49.80;;;;;;10382642;28;20249;-77
2022/10/26 08:13:09;;;;;;;2.47;2.27;;;16.40;50.30;;;;;;10383445;28;20467;-78
2022/10/26 08:18:12;;;;;;;2.40;2.13;;;16.40;49.80;;;;;;10386250;28;20237;-78
2022/10/26 08:23:17;;;;;;;4.93;2.40;;;16.50;50.00;;;;;;10386645;28;20238;-78
2022/10/26 08:28:20;;;;;;;3.10;2.30;;;16.60;50.40;;;;;;10389103;28;20279;-78
2022/10/26 08:33:23;;;;;;;3.23;2.23;;;16.60;49.80;;;;;;10394079;28;20240;-78
2022/10/26 08:38:28;;;;;;;3.60;2.37;;;16.70;49.90;;;;;;10387163;28;20229;-78
2022/10/26 08:43:38;;;;;;;2.97;2.20;;;16.80;49.90;;;;;;10402496;28;20241;-78
2022/10/26 08:48:46;;;;;;;4.57;2.50;;;16.90;49.80;;;;;;10389130;28;20241;-78
2022/10/26 08:53:54;;;;;;;2.67;1.87;;;17.00;50.10;;;;;;10393202;28;20225;-78
2022/10/26 08:59:01;;;;;;;2.53;2.33;;;17.10;49.70;;;;;;10396042;28;20248;-78
2022/10/26 09:04:09;;;;;;;2.83;2.23;;;17.10;49.70;;;;;;10391418;28;20238;-77
2022/10/26 09:09:17;;;;;;;3.87;2.07;;;17.30;50.10;;;;;;10396376;28;20606;-77
2022/10/26 09:14:31;;;;;;;2.70;1.97;;;17.40;50.10;;;;;;10391730;28;20236;-78
2022/10/26 09:20:13;;;;;;;2.40;2.00;;;17.60;49.70;;;;;;10386773;28;20238;-78
2022/10/26 09:25:20;;;;;;;2.23;1.87;;;17.70;49.60;;;;;;10391728;28;20240;-78
2022/10/26 09:30:23;;;;;;;3.00;2.00;;;17.90;49.50;;;;;;10395354;28;20312;-78
2022/10/26 09:35:31;;;;;;;2.67;2.20;;;18.00;49.00;;;;;;10392631;28;20711;-78
2022/10/26 09:40:45;;;;;;;2.20;2.00;;;18.10;48.90;;;;;;10400094;28;20240;-78
2022/10/26 09:45:51;;;;;;;1.80;1.70;;;18.10;49.00;;;;;;10403608;28;20280;-78
2022/10/26 09:50:56;;;;;;;3.30;1.80;;;18.20;49.20;;;;;;10394705;28;20237;-78
2022/10/26 09:56:10;;;;;;;3.47;1.90;;;18.40;49.00;;;;;;10402059;28;20234;-78
2022/10/26 10:01:22;;;;;;;3.47;1.90;;;18.50;49.00;;;;;;10400968;28;20929;-77
2022/10/26 10:06:26;;;;;;;2.73;1.80;;;18.60;49.20;;;;;;10395320;28;20297;-78
2022/10/26 10:11:40;;;;;;;1.60;1.50;;;18.80;49.30;;;;;;10399272;28;20228;-78
2022/10/26 10:16:50;;;;;;;2.63;1.60;;;19.00;48.70;;;;;;10384807;28;20226;-78
2022/10/26 10:21:56;;;;;;;2.20;1.70;;;19.10;49.30;;;;;;10395055;28;20237;-78
2022/10/26 10:27:03;;;;;;;1.50;1.40;;;19.30;48.90;;;;;;10398956;28;20603;-78
2022/10/26 10:32:06;;;;;;;2.93;1.77;;;19.40;48.20;;;;;;10392515;28;20244;-77
2022/10/26 10:37:25;;;;;;;3.23;1.60;;;19.50;48.30;;;;;;10388582;28;20297;-77
2022/10/26 10:42:32;;;;;;;1.50;1.40;;;19.70;48.20;;;;;;10389239;28;20304;-77
2022/10/26 10:47:37;;;;;;;2.93;1.80;;;19.80;47.30;;;;;;10394035;28;20237;-77
2022/10/26 10:52:40;;;;;;;3.13;1.77;;;19.90;47.80;;;;;;10392311;28;20308;-78
2022/10/26 10:57:56;;;;;;;3.43;1.83;;;19.90;47.60;;;;;;10389496;28;20234;-77
2022/10/26 11:03:22;;;;;;;2.43;1.90;;;20.00;47.00;;;;;;10385355;28;20241;-77
2022/10/26 11:08:34;;;;;;;6.40;2.00;;;20.10;47.10;;;;;;10388931;28;20244;-77
2022/10/26 11:13:44;;;;;;;3.30;1.90;;;20.20;46.80;;;;;;10392787;28;20236;-77
2022/10/26 11:18:52;;;;;;;2.03;1.87;;;20.20;46.60;;;;;;10390287;28;20236;-77
2022/10/26 11:24:12;;;;;;;2.97;2.43;;;20.20;46.70;;;;;;10381526;28;20292;-77
2022/10/26 11:29:33;;;;;;;3.37;2.47;;;20.30;46.20;;;;;;10391078;28;20288;-77
2022/10/26 11:34:49;;;;;;;4.27;2.17;;;20.30;46.70;;;;;;10389406;28;20233;-78
2022/10/26 11:40:02;;;;;;;2.93;2.00;;;20.30;46.30;;;;;;10383901;28;20703;-78
2022/10/26 11:45:15;;;;;;;3.33;1.90;;;20.40;46.40;;;;;;10383055;28;20234;-77
2022/10/26 11:50:22;;;;;;;4.27;1.93;;;20.40;46.10;;;;;;10393367;28;20232;-77
2022/10/26 11:55:26;;;;;;;4.67;2.27;;;20.40;46.20;;;;;;10379377;28;20241;-76
2022/10/26 12:00:31;;;;;;;2.87;2.00;;;20.40;46.60;;;;;;10382900;28;20229;-76
2022/10/26 12:05:42;;;;;;;3.73;2.07;;;20.50;46.20;;;;;;10384556;28;20656;-76
2022/10/26 12:10:52;;;;;;;3.00;1.77;;;20.50;46.20;;;;;;10402594;28;20673;-76
2022/10/26 12:16:01;;;;;;;4.27;1.90;;;20.60;46.20;;;;;;10389016;28;20279;-76
2022/10/26 12:21:08;;;;;;;4.13;2.00;;;20.70;46.00;;;;;;10386233;28;20226;-76
2022/10/26 12:26:48;;;;;;;3.43;1.63;;;20.70;46.20;;;;;;10383741;28;20245;-79
2022/10/26 12:31:52;;;;;;;3.70;2.00;;;20.80;46.00;;;;;;10380385;28;20226;-77
2022/10/26 12:37:23;;;;;;;2.00;1.80;;;20.90;46.20;;;;;;10393404;23;20260;-68
2022/10/26 12:42:30;;;;;;;2.50;1.90;;;20.90;45.90;;;;;;10380528;28;20233;-68
2022/10/26 12:48:01;;;;;;;3.33;2.60;;;20.90;45.50;;;;;;10366906;28;21045;-65
2022/10/26 12:53:23;;;;;;;2.70;2.10;;;21.00;45.80;;;;;;10372728;28;20231;-68
2022/10/26 12:59:18;;;;;;;3.63;1.93;;;21.00;46.10;;;;;;10376444;28;20244;-66
2022/10/26 13:04:50;;;;;;;4.30;2.27;;;21.00;46.00;;;;;;10382357;28;20233;-67
2022/10/26 13:10:00;;;;;;;2.77;2.43;;;21.10;45.30;;;;;;10382188;28;20230;-67
2022/10/26 13:15:06;;;;;;;4.53;2.20;;;21.00;45.30;;;;;;10378986;28;20612;-67
2022/10/26 13:20:18;;;;;;;3.40;2.17;;;21.10;45.30;;;;;;10375782;28;21092;-67
2022/10/26 13:25:24;;;;;;;3.47;2.17;;;21.10;44.70;;;;;;10378216;28;20240;-67
2022/10/26 13:30:47;;;;;;;3.87;2.30;;;21.10;45.00;;;;;;10375115;28;20230;-67
2022/10/26 13:35:57;;;;;;;3.50;2.20;;;21.10;45.00;;;;;;10375294;28;20245;-67
2022/10/26 13:41:08;;;;;;;3.07;2.17;;;21.10;45.20;;;;;;10373809;28;20244;-67
2022/10/26 13:46:26;;;;;;;4.37;2.17;;;21.20;45.40;;;;;;10378352;28;20231;-67
2022/10/26 13:51:39;;;;;;;3.10;1.70;;;21.30;45.30;;;;;;10378764;28;20230;-67
2022/10/26 13:56:48;;;;;;;3.43;1.77;;;21.40;45.60;;;;;;10374060;28;20240;-67
2022/10/26 14:02:06;;;;;;;2.10;1.77;;;21.50;45.20;;;;;;10373718;28;20222;-67
2022/10/26 14:07:19;;;;;;;3.37;1.97;;;21.60;45.40;;;;;;10375887;28;20665;-67
2022/10/26 14:12:23;;;;;;;2.73;2.00;;;21.60;45.10;;;;;;10372536;28;20262;-67
2022/10/26 14:17:27;;;;;;;2.53;1.60;;;21.70;45.50;;;;;;10369715;28;20302;-67
2022/10/26 14:22:31;;;;;;;2.77;2.20;;;21.80;45.50;;;;;;10364169;28;20746;-67
2022/10/26 14:27:39;;;;;;;3.63;1.90;;;21.90;45.00;;;;;;10372831;28;20237;-67
2022/10/26 14:32:42;;;;;;;2.57;1.90;;;21.90;44.80;;;;;;10378058;28;20226;-67
2022/10/26 14:37:52;;;;;;;5.30;2.10;;;22.00;45.20;;;;;;10381156;28;20229;-66
2022/10/26 14:42:58;;;;;;;2.60;2.03;;;22.00;44.50;;;;;;10379114;28;20704;-66
2022/10/26 14:48:03;;;;;;;3.47;1.87;;;22.10;44.90;;;;;;10376268;28;20241;-65
2022/10/26 14:53:15;;;;;;;2.50;1.90;;;22.10;45.10;;;;;;10379017;28;20654;-66
2022/10/26 14:58:22;;;;;;;2.33;1.77;;;22.10;45.40;;;;;;10377033;28;20235;-66
2022/10/26 15:03:29;;;;;;;4.30;2.03;;;22.10;45.60;;;;;;10379235;28;20295;-66
2022/10/26 15:08:45;;;;;;;3.53;2.30;;;22.00;45.40;;;;;;10378280;28;20229;-66
2022/10/26 15:13:59;;;;;;;3.00;2.20;;;22.00;45.00;;;;;;10375788;28;20232;-66
2022/10/26 15:19:09;;;;;;;5.70;2.70;;;21.90;45.20;;;;;;10371660;28;20756;-67
2022/10/26 15:24:30;;;;;;;4.57;2.80;;;21.90;45.10;;;;;;10373823;28;20241;-66
2022/10/26 15:29:42;;;;;;;3.73;2.10;;;21.90;45.30;;;;;;10373637;28;20567;-66
2022/10/26 15:35:03;;;;;;;3.10;2.00;;;21.90;45.70;;;;;;10377433;28;20530;-66
2022/10/26 15:40:08;;;;;;;5.73;2.27;;;21.80;45.70;;;;;;10375173;28;20229;-66
2022/10/26 15:45:17;;;;;;;3.37;1.80;;;21.80;45.60;;;;;;10375840;28;20233;-66
2022/10/26 15:50:22;;;;;;;2.00;1.80;;;21.70;45.50;;;;;;10379415;28;20225;-66
2022/10/26 15:55:27;;;;;;;4.43;2.10;;;21.60;45.60;;;;;;10378556;28;20232;-66
2022/10/26 16:00:30;;;;;;;3.30;2.40;;;21.60;45.70;;;;;;10375975;28;20318;-66
2022/10/26 16:05:33;;;;;;;3.67;2.33;;;21.50;45.60;;;;;;10379797;28;20237;-66
2022/10/26 16:10:38;;;;;;;4.70;2.50;;;21.50;45.70;;;;;;10386595;28;20226;-68
2022/10/26 16:15:41;;;;;;;5.00;4.20;;;21.40;46.70;;;;;;10378815;28;20241;-68
2022/10/26 16:20:46;;;;;;;6.70;4.30;;;21.40;46.00;;;;;;10377849;28;20652;-73
2022/10/26 16:25:51;;;;;;;6.30;4.13;;;21.30;46.00;;;;;;10379061;28;20789;-73
2022/10/26 16:30:59;;;;;;;6.47;5.00;;;21.30;46.10;;;;;;10386973;28;20222;-73
2022/10/26 16:36:03;;;;;;;9.90;7.30;;;21.30;46.00;;;;;;10381736;28;20237;-72
2022/10/26 16:41:10;;;;;;;8.00;7.20;;;21.30;45.80;;;;;;10388106;28;20287;-73
2022/10/26 16:46:14;;;;;;;9.50;8.50;;;21.30;45.90;;;;;;10389697;28;20332;-73
2022/10/26 16:51:20;;;;;;;11.73;9.37;;;21.30;45.90;;;;;;10391343;28;20248;-73
2022/10/26 16:56:28;;;;;;;9.80;8.80;;;21.20;45.50;;;;;;10378763;28;20556;-72
2022/10/26 17:01:32;;;;;;;9.07;8.17;;;21.20;45.50;;;;;;10394274;28;20699;-72
2022/10/26 17:06:35;;;;;;;8.40;7.03;;;21.10;45.40;;;;;;10382312;28;20237;-73
2022/10/26 17:11:40;;;;;;;6.33;5.57;;;21.00;45.40;;;;;;10390143;28;20238;-73
2022/10/26 17:16:43;;;;;;;7.13;4.60;;;20.90;45.40;;;;;;10380527;28;20283;-73
2022/10/26 17:21:46;;;;;;;7.07;3.90;;;20.90;45.40;;;;;;10377334;28;20230;-72
2022/10/26 17:26:50;;;;;;;6.70;4.63;;;20.90;45.50;;;;;;10388266;28;20242;-73
2022/10/26 17:31:54;;;;;;;6.60;4.53;;;20.90;45.50;;;;;;10383759;28;21166;-73
2022/10/26 17:36:57;;;;;;;9.23;5.33;;;20.80;45.40;;;;;;10384257;28;20234;-72
2022/10/26 17:42:01;;;;;;;6.03;4.93;;;20.80;45.50;;;;;;10386730;28;20241;-72
2022/10/26 17:47:04;;;;;;;7.23;5.03;;;20.70;45.40;;;;;;10380895;28;21023;-72
2022/10/26 17:52:08;;;;;;;4.33;3.93;;;20.70;45.40;;;;;;10382508;28;20712;-72
2022/10/26 17:57:12;;;;;;;5.23;4.33;;;20.60;45.40;;;;;;10384290;28;20238;-70
2022/10/26 18:02:15;;;;;;;5.70;4.40;;;20.60;45.50;;;;;;10384142;28;20707;-70
2022/10/26 18:07:18;;;;;;;6.10;4.67;;;20.50;45.40;;;;;;10381419;28;20324;-70
2022/10/26 18:12:23;;;;;;;7.80;4.77;;;20.50;45.50;;;;;;10385943;28;20319;-70
2022/10/26 18:17:26;;;;;;;7.47;4.83;;;20.40;46.40;;;;;;10387067;28;20793;-70
2022/10/26 18:22:29;;;;;;;5.07;4.23;;;20.40;45.60;;;;;;10381743;28;20257;-70
2022/10/26 18:27:34;;;;;;;6.87;5.13;;;20.40;45.70;;;;;;10380184;28;20237;-70
2022/10/26 18:32:37;;;;;;;9.83;5.90;;;20.30;45.70;;;;;;10380732;28;20232;-70
2022/10/26 18:37:40;;;;;;;6.97;5.97;;;20.20;45.50;;;;;;10373859;28;20241;-70
2022/10/26 18:42:45;;;;;;;14.97;10.60;;;20.10;45.40;;;;;;10378771;28;20226;-70
2022/10/26 18:47:48;;;;;;;11.97;9.07;;;20.10;45.50;;;;;;10379876;28;20260;-70
2022/10/26 18:52:51;;;;;;;9.83;8.40;;;20.00;45.40;;;;;;10383234;28;20292;-70
2022/10/26 18:57:57;;;;;;;15.57;12.17;;;19.90;45.30;;;;;;10376254;28;20234;-70
2022/10/26 19:03:00;;;;;;;18.97;16.13;;;19.90;45.20;;;;;;10379279;28;21703;-71
2022/10/26 19:08:03;;;;;;;15.47;12.60;;;19.80;45.20;;;;;;10373750;28;20244;-70
2022/10/26 19:13:08;;;;;;;23.90;20.17;;;19.70;45.10;;;;;;10381299;28;20237;-71
2022/10/26 19:18:11;;;;;;;24.93;21.07;;;19.60;45.20;;;;;;10375227;28;20237;-70
2022/10/26 19:23:14;;;;;;;22.20;18.20;;;19.60;45.30;;;;;;10376497;28;20786;-70
2022/10/26 19:28:18;;;;;;;13.40;10.17;;;19.50;45.30;;;;;;10377559;28;20296;-70
2022/10/26 19:33:24;;;;;;;10.20;8.30;;;19.50;45.40;;;;;;10382640;28;20247;-70
2022/10/26 19:38:28;;;;;;;8.40;6.80;;;19.40;45.20;;;;;;10378163;28;20237;-70
2022/10/26 19:43:34;;;;;;;7.77;6.43;;;19.40;45.10;;;;;;10378945;28;20226;-70
2022/10/26 19:48:38;;;;;;;9.27;7.37;;;19.30;44.90;;;;;;10372432;28;20237;-70
2022/10/26 19:53:41;;;;;;;11.87;9.80;;;19.20;45.00;;;;;;10377465;28;20283;-73
2022/10/26 19:58:46;;;;;;;13.63;9.87;;;19.10;44.90;;;;;;10373797;28;20915;-72
2022/10/26 20:03:49;;;;;;;9.97;8.73;;;19.00;45.10;;;;;;10382753;28;21009;-72
2022/10/26 20:08:52;;;;;;;8.53;6.80;;;18.90;45.10;;;;;;10376337;28;20229;-73
2022/10/26 20:13:57;;;;;;;8.03;6.50;;;18.90;45.20;;;;;;10389495;28;20234;-72
2022/10/26 20:19:01;;;;;;;14.93;12.03;;;18.80;45.00;;;;;;10386697;28;20234;-72
2022/10/26 20:24:05;;;;;;;15.20;13.60;;;18.70;44.70;;;;;;10383967;28;20572;-72
2022/10/26 20:29:13;;;;;;;14.10;11.80;;;18.60;44.70;;;;;;10386376;28;20237;-72
2022/10/26 20:34:16;;;;;;;14.50;13.10;;;18.50;45.00;;;;;;10388842;28;20237;-72
2022/10/26 20:39:20;;;;;;;15.63;14.03;;;18.30;45.00;;;;;;10390657;28;20245;-72
2022/10/26 20:44:29;;;;;;;17.47;15.77;;;18.30;45.30;;;;;;10384201;28;20236;-71
2022/10/26 20:49:33;;;;;;;14.70;13.40;;;18.20;45.30;;;;;;10381716;28;20245;-71
2022/10/26 20:54:43;;;;;;;10.60;9.40;;;18.20;45.30;;;;;;10367864;28;20281;-72
2022/10/26 20:59:50;;;;;;;7.07;6.37;;;18.20;45.40;;;;;;10369482;28;20236;-71
2022/10/26 21:04:53;;;;;;;6.73;5.87;;;18.20;45.20;;;;;;10374491;28;20222;-69
2022/10/26 21:09:56;;;;;;;5.57;4.57;;;18.10;45.00;;;;;;10379338;28;20233;-68
2022/10/26 21:15:01;;;;;;;5.43;4.97;;;18.00;44.90;;;;;;10380301;28;20790;-68
2022/10/26 21:20:04;;;;;;;6.93;4.87;;;18.00;44.80;;;;;;10376744;28;20813;-69
2022/10/26 21:25:08;;;;;;;4.87;4.37;;;18.00;44.90;;;;;;10375196;28;20226;-68
2022/10/26 21:30:14;;;;;;;5.17;4.10;;;17.80;44.90;;;;;;10364313;28;20238;-68
2022/10/26 21:35:17;;;;;;;3.73;3.43;;;17.80;45.00;;;;;;10370255;28;20237;-68
2022/10/26 21:40:20;;;;;;;6.13;4.30;;;17.70;45.00;;;;;;10366708;28;20226;-70
2022/10/26 21:45:25;;;;;;;5.67;4.13;;;17.60;45.80;;;;;;10365586;28;20665;-69
2022/10/26 21:50:28;;;;;;;7.03;3.97;;;17.50;45.40;;;;;;10372379;28;20287;-70
2022/10/26 21:55:31;;;;;;;4.37;3.90;;;17.50;45.40;;;;;;10374131;28;21029;-68
2022/10/26 22:00:37;;;;;;;7.03;4.23;;;17.50;45.50;;;;;;10379527;28;20222;-68
2022/10/26 22:05:40;;;;;;;5.07;3.70;;;17.40;45.80;;;;;;10376324;28;20234;-68
2022/10/26 22:10:48;;;;;;;4.00;3.60;;;17.30;45.70;;;;;;10379310;28;20767;-69
2022/10/26 22:16:02;;;;;;;6.43;3.70;;;17.30;46.10;;;;;;10383610;28;20296;-68
2022/10/26 22:21:06;;;;;;;4.97;3.70;;;17.30;46.20;;;;;;10385246;28;20230;-68
2022/10/26 22:26:11;;;;;;;4.87;3.00;;;17.20;45.50;;;;;;10378564;28;20230;-68
2022/10/26 22:31:18;;;;;;;4.50;3.57;;;17.20;45.60;;;;;;10388700;28;20310;-68
2022/10/26 22:36:22;;;;;;;4.70;3.40;;;17.20;45.50;;;;;;10376447;28;20244;-68
2022/10/26 22:41:25;;;;;;;4.27;3.50;;;17.10;45.20;;;;;;10375052;28;20379;-69
2022/10/26 22:46:30;;;;;;;5.77;3.77;;;17.10;45.30;;;;;;10368656;28;20245;-70
2022/10/26 22:51:34;;;;;;;3.93;3.47;;;17.10;45.40;;;;;;10367906;28;20226;-70
2022/10/26 22:56:37;;;;;;;4.37;3.43;;;17.00;45.40;;;;;;10374112;28;20236;-70
2022/10/26 23:01:42;;;;;;;4.50;3.80;;;16.90;45.50;;;;;;10371451;28;20246;-70
2022/10/26 23:06:45;;;;;;;5.00;3.27;;;16.90;46.00;;;;;;10372005;28;20618;-70
2022/10/26 23:11:48;;;;;;;4.47;3.17;;;16.80;45.70;;;;;;10370522;28;20234;-70
2022/10/26 23:16:53;;;;;;;4.93;3.17;;;16.80;45.80;;;;;;10370410;28;20233;-70
2022/10/26 23:21:56;;;;;;;3.57;3.23;;;16.70;45.80;;;;;;10369786;28;20226;-70
2022/10/26 23:27:05;;;;;;;4.40;3.37;;;16.70;45.80;;;;;;10370265;28;20234;-70
2022/10/26 23:32:09;;;;;;;3.80;3.20;;;16.70;45.80;;;;;;10365895;28;20225;-69
2022/10/26 23:37:13;;;;;;;4.77;3.10;;;16.60;45.70;;;;;;10365711;28;20730;-68
2022/10/26 23:42:16;;;;;;;5.47;3.80;;;16.60;45.70;;;;;;10363493;28;20237;-69
2022/10/26 23:47:21;;;;;;;5.57;3.27;;;16.50;45.30;;;;;;10365860;28;20240;-69
2022/10/26 23:52:24;;;;;;;4.60;3.23;;;16.50;45.60;;;;;;10370192;28;20286;-69
2022/10/26 23:57:27;;;;;;;5.63;3.10;;;16.40;45.50;;;;;;10368907;28;20237;-69
